Time;durP1;ratioP1;P1;durP2;ratioP2;P2;SDS_P1;SDS_P2;PMS_P1;PMS_P2;Temp;Humidity;BMP_temperature;BMP_pressure;BME280_temperature;BME280_humidity;BME280_pressure;Samples;Min_cycle;Max_cycle;Signal;HPM_P1;HPM_P2
2022/04/27 00:02:01;;;;;;;6.17;3.97;;;;;;;13.35;88.18;94674.63;5022785;28;20233;-79
2022/04/27 00:04:28;;;;;;;6.90;4.50;;;;;;;13.23;89.79;94671.28;5023659;28;20192;-79
2022/04/27 00:06:55;;;;;;;5.47;4.00;;;;;;;13.21;89.89;94679.34;5020566;28;20199;-80
2022/04/27 00:09:22;;;;;;;6.60;4.23;;;;;;;13.13;90.60;94682.31;5022032;28;20199;-80
2022/04/27 00:11:48;;;;;;;6.37;4.43;;;;;;;13.07;91.24;94678.03;5022998;28;20584;-80
2022/04/27 00:14:16;;;;;;;12.47;5.00;;;;;;;12.80;92.93;94671.72;5023369;28;20290;-80
2022/04/27 00:16:44;;;;;;;12.23;4.90;;;;;;;12.73;94.15;94671.06;5023802;28;20761;-82
2022/04/27 00:19:12;;;;;;;10.43;5.00;;;;;;;12.72;94.75;94672.91;5021261;28;20191;-80
2022/04/27 00:21:39;;;;;;;9.63;4.50;;;;;;;12.72;95.05;94672.09;5021189;28;20657;-80
2022/04/27 00:24:07;;;;;;;6.63;4.93;;;;;;;12.70;94.98;94669.72;5022116;28;20230;-80
2022/04/27 00:26:34;;;;;;;6.87;4.47;;;;;;;12.75;95.17;94676.84;5022244;28;20199;-80
2022/04/27 00:29:00;;;;;;;5.87;4.67;;;;;;;12.77;94.63;94687.84;5021783;28;20230;-77
2022/04/27 00:31:28;;;;;;;6.83;4.33;;;;;;;12.79;94.40;94678.75;5022384;28;20349;-80
2022/04/27 00:33:55;;;;;;;6.80;4.67;;;;;;;12.81;94.34;94679.31;5020410;28;20279;-79
2022/04/27 00:36:23;;;;;;;7.87;4.70;;;;;;;12.75;94.28;94682.06;5021799;28;20700;-79
2022/04/27 00:38:50;;;;;;;7.33;4.70;;;;;;;12.70;95.22;94680.13;5022847;28;20286;-80
2022/04/27 00:41:18;;;;;;;6.90;4.77;;;;;;;12.75;95.21;94689.91;5021083;28;20196;-78
2022/04/27 00:43:46;;;;;;;5.83;4.20;;;;;;;12.76;95.02;94683.63;5020509;28;20188;-78
2022/04/27 00:46:13;;;;;;;5.90;4.33;;;;;;;12.79;94.95;94683.97;5023021;28;20204;-78
2022/04/27 00:48:41;;;;;;;5.37;4.30;;;;;;;12.83;94.42;94677.28;5021997;28;20187;-79
2022/04/27 00:51:11;;;;;;;7.20;4.37;;;;;;;12.82;94.53;94678.31;5022723;28;20287;-78
2022/04/27 00:53:40;;;;;;;8.63;4.73;;;;;;;12.87;94.16;94685.44;5020046;28;20218;-77
2022/04/27 00:56:08;;;;;;;6.50;4.33;;;;;;;12.82;94.60;94683.53;5023442;28;20702;-79
2022/04/27 00:58:35;;;;;;;6.50;4.60;;;;;;;12.85;94.43;94677.84;5020530;28;20195;-78
2022/04/27 01:01:02;;;;;;;7.20;4.40;;;;;;;12.88;94.34;94679.19;5020919;28;20204;-79
2022/04/27 01:03:29;;;;;;;7.50;4.67;;;;;;;12.89;94.20;94692.03;5019950;28;20214;-78
2022/04/27 01:05:57;;;;;;;6.90;4.77;;;;;;;12.89;93.77;94686.00;5019928;28;20211;-79
2022/04/27 01:08:23;;;;;;;9.67;4.70;;;;;;;12.84;94.01;94684.06;5021147;28;20213;-79
2022/04/27 01:10:53;;;;;;;8.20;4.97;;;;;;;12.80;94.43;94682.16;5021515;28;20198;-78
2022/04/27 01:13:20;;;;;;;8.33;5.10;;;;;;;12.83;93.80;94679.09;5020898;28;20212;-78
2022/04/27 01:15:47;;;;;;;9.73;5.40;;;;;;;12.80;94.34;94675.13;5023058;28;20199;-79
2022/04/27 01:18:15;;;;;;;8.40;5.23;;;;;;;12.81;94.27;94678.53;5019237;28;20196;-78
2022/04/27 01:20:44;;;;;;;8.17;5.30;;;;;;;12.76;94.32;94676.63;5019000;28;20286;-79
2022/04/27 01:23:12;;;;;;;13.07;5.50;;;;;;;12.71;94.85;94678.31;5020142;28;20219;-79
2022/04/27 01:25:54;;;;;;;10.37;5.63;;;;;;;12.73;94.83;94674.47;5022440;28;20227;-78
2022/04/27 01:28:23;;;;;;;9.30;5.97;;;;;;;12.75;94.51;94674.25;5021958;28;20187;-79
2022/04/27 01:30:57;;;;;;;9.60;5.80;;;;;;;12.66;94.67;94663.38;5021870;28;20245;-79
2022/04/27 01:33:24;;;;;;;9.20;5.83;;;;;;;12.75;94.00;94682.88;5021686;28;20260;-78
2022/04/27 01:35:53;;;;;;;12.57;6.30;;;;;;;12.64;94.60;94675.84;5018880;28;20192;-78
2022/04/27 01:38:21;;;;;;;11.00;6.00;;;;;;;12.53;94.92;94663.63;5021347;28;20191;-78
2022/04/27 01:40:48;;;;;;;8.13;5.80;;;;;;;12.54;95.45;94667.81;5021669;28;20192;-78
2022/04/27 01:43:15;;;;;;;13.10;6.30;;;;;;;12.55;95.39;94677.25;5019063;28;20187;-78
2022/04/27 01:45:44;;;;;;;8.40;5.73;;;;;;;12.39;95.32;94673.50;5022142;28;20192;-78
2022/04/27 01:48:12;;;;;;;11.17;6.20;;;;;;;12.22;96.49;94675.22;5019208;28;20211;-79
2022/04/27 01:50:39;;;;;;;9.90;6.20;;;;;;;12.10;97.40;94674.41;5020289;28;20187;-78
2022/04/27 01:55:52;;;;;;;10.83;6.10;;;;;;;11.93;99.24;94670.91;5021236;28;20190;-77
2022/04/27 01:58:19;;;;;;;11.57;6.00;;;;;;;11.93;99.74;94663.88;5021079;28;20624;-77
2022/04/27 02:00:47;;;;;;;14.80;6.33;;;;;;;11.98;99.78;94667.63;5019686;28;20202;-77
2022/04/27 02:03:14;;;;;;;14.60;6.50;;;;;;;11.99;99.46;94670.00;5021522;28;20619;-77
2022/04/27 02:05:41;;;;;;;9.97;6.40;;;;;;;11.99;98.94;94664.78;5020764;28;20199;-78
2022/04/27 02:08:09;;;;;;;10.13;6.03;;;;;;;12.08;98.24;94665.25;5019031;28;20202;-78
2022/04/27 02:10:37;;;;;;;10.23;5.77;;;;;;;12.07;98.16;94661.03;5019135;28;20690;-79
2022/04/27 02:13:04;;;;;;;9.37;5.93;;;;;;;12.03;97.89;94658.13;5019417;28;20257;-78
2022/04/27 02:15:31;;;;;;;8.27;6.50;;;;;;;11.99;97.93;94661.38;5021291;28;20211;-79
2022/04/27 02:17:58;;;;;;;13.03;6.43;;;;;;;11.98;97.70;94668.41;5020870;28;20199;-79
2022/04/27 02:20:25;;;;;;;15.90;6.70;;;;;;;11.97;98.07;94669.44;5018809;28;20198;-78
2022/04/27 02:22:52;;;;;;;8.70;6.10;;;;;;;11.97;98.32;94668.66;5021071;28;20253;-78
2022/04/27 02:25:20;;;;;;;7.93;6.43;;;;;;;11.97;98.36;94664.22;5020597;28;20246;-78
2022/04/27 02:27:49;;;;;;;10.07;6.90;;;;;;;11.90;98.54;94664.34;5019086;28;20588;-79
2022/04/27 02:30:17;;;;;;;10.80;6.77;;;;;;;11.87;98.76;94669.19;5018801;28;20295;-79
2022/04/27 02:32:45;;;;;;;11.20;7.00;;;;;;;11.86;99.40;94662.41;5019646;28;20586;-79
2022/04/27 02:35:12;;;;;;;14.40;6.33;;;;;;;11.85;99.47;94676.44;5020883;28;20194;-79
2022/04/27 02:37:39;;;;;;;13.43;6.40;;;;;;;11.85;99.86;94679.06;5019441;28;20206;-79
2022/04/27 02:40:08;;;;;;;9.10;6.17;;;;;;;11.84;100.00;94674.84;5021900;28;20718;-80
2022/04/27 02:42:36;;;;;;;11.50;6.07;;;;;;;11.80;100.00;94671.13;5017558;28;20195;-79
2022/04/27 02:45:03;;;;;;;9.87;6.40;;;;;;;11.78;100.00;94673.13;5021699;28;20196;-79
2022/04/27 02:47:30;;;;;;;10.50;6.43;;;;;;;11.82;100.00;94676.91;5018848;28;20190;-79
2022/04/27 02:52:41;;;;;;;9.13;6.13;;;;;;;11.76;100.00;94672.59;5019738;28;20694;-78
2022/04/27 02:55:08;;;;;;;12.47;6.37;;;;;;;11.70;100.00;94673.47;5020083;28;20312;-78
2022/04/27 02:57:36;;;;;;;12.20;6.30;;;;;;;11.66;100.00;94669.72;5020512;28;20187;-79
2022/04/27 03:00:04;;;;;;;10.47;6.67;;;;;;;11.43;100.00;94670.44;5019189;28;20195;-79
2022/04/27 03:02:31;;;;;;;13.43;7.30;;;;;;;11.34;100.00;94671.78;5020243;28;20235;-77
2022/04/27 03:05:00;;;;;;;12.77;7.30;;;;;;;11.35;100.00;94676.75;5018638;28;20257;-77
2022/04/27 03:07:28;;;;;;;18.03;7.97;;;;;;;11.34;100.00;94675.16;5019544;28;20294;-78
2022/04/27 03:09:55;;;;;;;15.77;7.77;;;;;;;11.39;100.00;94666.72;5020526;28;20689;-78
2022/04/27 03:12:21;;;;;;;15.97;7.50;;;;;;;11.42;100.00;94668.06;5019177;28;20194;-78
2022/04/27 03:14:50;;;;;;;18.27;7.80;;;;;;;11.31;100.00;94662.59;5019741;28;20250;-78
2022/04/27 03:17:16;;;;;;;23.13;8.40;;;;;;;11.43;100.00;94680.06;5017174;28;20609;-78
2022/04/27 03:19:43;;;;;;;13.30;7.80;;;;;;;11.42;100.00;94684.47;5019343;28;20576;-77
2022/04/27 03:22:10;;;;;;;15.83;8.40;;;;;;;11.42;100.00;94691.50;5019234;28;20203;-78
2022/04/27 03:24:37;;;;;;;19.03;8.77;;;;;;;11.42;99.95;94686.28;5018297;28;20219;-78
2022/04/27 03:27:05;;;;;;;20.27;8.87;;;;;;;11.38;100.00;94691.13;5020240;28;20253;-77
2022/04/27 03:29:31;;;;;;;14.93;9.17;;;;;;;11.39;99.68;94690.13;5017711;28;20219;-78
2022/04/27 03:32:00;;;;;;;19.10;9.53;;;;;;;11.31;100.00;94686.00;5019434;28;20195;-79
2022/04/27 03:34:30;;;;;;;16.80;8.70;;;;;;;11.26;100.00;94696.28;5022489;28;20207;-77
2022/04/27 03:36:57;;;;;;;17.53;8.27;;;;;;;11.27;100.00;94702.28;5022471;28;20199;-79
2022/04/27 03:39:23;;;;;;;18.57;8.83;;;;;;;11.24;100.00;94700.94;5022930;28;20190;-78
2022/04/27 03:41:50;;;;;;;17.17;9.30;;;;;;;11.23;100.00;94706.34;5022640;28;20195;-78
2022/04/27 03:44:17;;;;;;;16.67;8.73;;;;;;;11.15;100.00;94697.03;5024105;28;20198;-79
2022/04/27 03:46:44;;;;;;;20.90;9.23;;;;;;;11.06;100.00;94703.56;5022854;28;20206;-78
2022/04/27 03:49:12;;;;;;;14.23;8.23;;;;;;;11.04;100.00;94707.41;5021010;28;20291;-79
2022/04/27 03:51:39;;;;;;;20.67;9.83;;;;;;;11.10;100.00;94714.31;5023754;28;20222;-78
2022/04/27 03:54:06;;;;;;;21.67;10.40;;;;;;;11.10;100.00;94702.13;5022920;28;20654;-79
2022/04/27 03:56:32;;;;;;;23.07;10.10;;;;;;;11.05;100.00;94699.38;5022921;28;20207;-77
2022/04/27 03:58:59;;;;;;;21.57;10.33;;;;;;;11.14;100.00;94716.25;5024730;28;20191;-79
2022/04/27 04:01:26;;;;;;;20.53;11.00;;;;;;;11.18;100.00;94717.41;5023058;28;20196;-78
2022/04/27 04:03:55;;;;;;;18.40;9.80;;;;;;;11.13;100.00;94709.50;5021228;28;20680;-78
2022/04/27 04:06:23;;;;;;;14.90;10.13;;;;;;;11.19;100.00;94728.63;5023043;28;20187;-78
2022/04/27 04:08:50;;;;;;;19.33;11.10;;;;;;;11.22;100.00;94728.19;5023252;28;20250;-78
2022/04/27 04:11:19;;;;;;;19.37;11.17;;;;;;;11.21;100.00;94723.97;5021226;28;20207;-78
2022/04/27 04:13:45;;;;;;;24.27;11.50;;;;;;;11.16;100.00;94716.06;5021075;28;20751;-80
2022/04/27 04:16:12;;;;;;;27.00;12.60;;;;;;;11.29;100.00;94731.47;5023801;28;20196;-80
2022/04/27 04:18:39;;;;;;;32.33;12.07;;;;;;;11.33;100.00;94738.63;5023209;28;20203;-80
2022/04/27 04:21:06;;;;;;;34.67;12.57;;;;;;;11.39;100.00;94744.78;5020964;28;20202;-80
2022/04/27 04:23:34;;;;;;;35.53;14.43;;;;;;;11.43;100.00;94748.50;5022841;28;20684;-80
2022/04/27 04:28:45;;;;;;;39.27;14.07;;;;;;;11.54;100.00;94745.19;5020737;28;20194;-80
2022/04/27 04:31:14;;;;;;;29.43;11.73;;;;;;;11.54;100.00;94741.78;5023215;28;20282;-77
2022/04/27 04:33:41;;;;;;;26.93;11.93;;;;;;;11.59;100.00;94747.09;5021281;28;20306;-78
2022/04/27 04:36:08;;;;;;;25.40;12.07;;;;;;;11.64;100.00;94749.81;5021269;28;20666;-78
2022/04/27 04:38:36;;;;;;;31.17;15.77;;;;;;;11.68;100.00;94750.97;5012213;28;20256;-73
2022/04/27 04:41:03;;;;;;;38.17;17.13;;;;;;;11.76;100.00;94746.28;5019962;28;20627;-73
2022/04/27 04:43:32;;;;;;;34.90;19.23;;;;;;;11.85;100.00;94760.56;5022641;28;20203;-72
2022/04/27 04:45:58;;;;;;;38.20;21.43;;;;;;;11.88;100.00;94754.91;5019478;28;20728;-73
2022/04/27 04:48:25;;;;;;;56.57;39.90;;;;;;;11.99;100.00;94749.94;5021910;28;20190;-73
2022/04/27 04:50:52;;;;;;;71.37;45.43;;;;;;;11.90;100.00;94763.28;5021351;28;20241;-72
2022/04/27 04:53:19;;;;;;;59.40;41.83;;;;;;;11.78;100.00;94761.66;5020328;28;20674;-73
2022/04/27 04:55:47;;;;;;;63.43;44.30;;;;;;;11.77;100.00;94763.50;5022220;28;20765;-72
2022/04/27 04:58:14;;;;;;;53.30;34.00;;;;;;;11.81;100.00;94763.81;5020927;28;20204;-72
2022/04/27 05:00:41;;;;;;;31.37;18.70;;;;;;;11.93;100.00;94767.25;5021864;28;20218;-75
2022/04/27 05:03:08;;;;;;;19.60;13.23;;;;;;;12.03;100.00;94766.72;5021717;28;20206;-76
2022/04/27 05:05:35;;;;;;;19.07;12.87;;;;;;;12.10;100.00;94768.19;5022341;28;20202;-75
2022/04/27 05:08:02;;;;;;;19.20;12.60;;;;;;;12.30;100.00;94770.50;5020407;28;20212;-76
2022/04/27 05:10:28;;;;;;;14.37;9.30;;;;;;;12.35;100.00;94778.44;5023007;28;20286;-76
2022/04/27 05:12:57;;;;;;;13.73;8.13;;;;;;;12.39;100.00;94775.16;5023150;28;20682;-76
2022/04/27 05:15:24;;;;;;;15.47;7.20;;;;;;;12.49;100.00;94772.78;5023627;28;20218;-76
2022/04/27 05:17:50;;;;;;;13.30;7.10;;;;;;;12.50;100.00;94765.75;5022538;28;20195;-75
2022/04/27 05:20:17;;;;;;;13.47;7.23;;;;;;;12.62;100.00;94773.56;5016712;28;20195;-76
2022/04/27 05:22:44;;;;;;;15.80;7.90;;;;;;;12.71;100.00;94761.78;5020567;28;20206;-75
2022/04/27 05:25:12;;;;;;;11.10;7.23;;;;;;;12.70;100.00;94766.19;5020271;28;20273;-75
2022/04/27 05:27:39;;;;;;;16.13;7.77;;;;;;;12.76;100.00;94765.28;5020074;28;20591;-75
2022/04/27 05:32:53;;;;;;;25.50;8.97;;;;;;;12.75;100.00;94763.72;5019375;28;20190;-76
2022/04/27 05:35:20;;;;;;;18.50;9.13;;;;;;;12.80;100.00;94769.03;5019935;28;20208;-75
2022/04/27 05:37:47;;;;;;;13.67;9.00;;;;;;;12.78;100.00;94760.66;5019922;28;20194;-76
2022/04/27 05:40:15;;;;;;;19.17;8.90;;;;;;;12.86;100.00;94770.72;5021527;28;20264;-76
2022/04/27 05:42:41;;;;;;;17.80;8.83;;;;;;;12.90;100.00;94763.25;5021664;28;20194;-75
2022/04/27 05:45:10;;;;;;;17.30;8.43;;;;;;;12.99;100.00;94767.06;5021001;28;20199;-73
2022/04/27 05:47:37;;;;;;;20.17;9.70;;;;;;;12.99;100.00;94777.50;5033735;28;20187;-93
2022/04/27 05:50:05;;;;;;;19.93;9.97;;;;;;;12.87;100.00;94777.50;5025145;28;20198;-76
2022/04/27 05:52:32;;;;;;;18.20;9.63;;;;;;;12.92;99.71;94780.25;5021073;28;20237;-75
2022/04/27 05:54:58;;;;;;;20.80;9.33;;;;;;;12.99;99.92;94770.47;5019322;28;20219;-86
2022/04/27 05:57:26;;;;;;;21.30;9.43;;;;;;;13.17;98.07;94769.56;5021275;28;20291;-75
2022/04/27 05:59:55;;;;;;;19.37;10.00;;;;;;;13.23;97.87;94776.47;5022807;28;20191;-75
2022/04/27 06:02:24;;;;;;;17.40;10.20;;;;;;;13.32;97.72;94774.28;5019652;28;20279;-75
2022/04/27 06:04:51;;;;;;;21.83;10.00;;;;;;;13.33;97.27;94774.03;5018636;28;20201;-75
2022/04/27 06:07:17;;;;;;;15.90;10.80;;;;;;;13.36;96.20;94778.03;5018678;28;20203;-75
2022/04/27 06:09:44;;;;;;;19.87;10.77;;;;;;;13.30;95.83;94766.72;5019805;28;20205;-76
2022/04/27 06:12:14;;;;;;;18.43;10.70;;;;;;;13.38;96.35;94779.38;5020597;28;20196;-76
2022/04/27 06:14:41;;;;;;;16.23;9.50;;;;;;;13.44;95.58;94775.06;5020777;28;20321;-74
2022/04/27 06:17:08;;;;;;;17.60;9.93;;;;;;;13.52;95.33;94775.47;5020353;28;20204;-75
2022/04/27 06:19:39;;;;;;;14.73;9.60;;;;;;;13.56;95.19;94778.41;5016723;28;20195;-75
2022/04/27 06:22:06;;;;;;;20.83;10.27;;;;;;;13.68;94.37;94778.38;5021164;28;20206;-75
2022/04/27 06:24:32;;;;;;;17.77;10.07;;;;;;;13.70;94.74;94777.13;5023674;28;20218;-76
2022/04/27 06:26:59;;;;;;;19.90;10.53;;;;;;;13.86;93.97;94780.78;5020393;28;20219;-76
2022/04/27 06:29:26;;;;;;;21.83;10.90;;;;;;;13.92;93.13;94780.63;5020439;28;20194;-75
2022/04/27 06:31:53;;;;;;;19.20;10.33;;;;;;;13.99;92.24;94778.69;5020783;28;20198;-76
2022/04/27 06:34:19;;;;;;;17.37;10.47;;;;;;;14.06;91.98;94781.13;5018344;28;20230;-75
2022/04/27 06:36:48;;;;;;;20.20;10.73;;;;;;;14.13;91.85;94779.16;5020807;28;20346;-75
2022/04/27 06:39:15;;;;;;;23.80;11.20;;;;;;;14.23;91.63;94779.31;5021488;28;20554;-77
2022/04/27 06:41:43;;;;;;;33.83;11.47;;;;;;;14.32;91.21;94779.72;5020398;28;20207;-76
2022/04/27 06:44:10;;;;;;;29.80;11.80;;;;;;;14.40;90.03;94769.69;5021051;28;20301;-76
2022/04/27 06:46:36;;;;;;;18.80;11.67;;;;;;;14.41;90.24;94779.13;5020400;28;20226;-76
2022/04/27 06:49:03;;;;;;;22.20;11.83;;;;;;;14.42;89.53;94780.72;5019590;28;20713;-76
2022/04/27 06:51:31;;;;;;;18.83;11.57;;;;;;;14.41;89.72;94771.28;5018511;28;20666;-76
2022/04/27 06:53:59;;;;;;;18.27;11.70;;;;;;;14.43;89.83;94771.81;5016896;28;20230;-78
2022/04/27 06:56:26;;;;;;;23.60;11.23;;;;;;;14.57;88.50;94775.69;5019937;28;20218;-77
2022/04/27 06:58:53;;;;;;;20.40;11.63;;;;;;;14.65;88.78;94771.91;5019221;28;20199;-75
2022/04/27 07:01:19;;;;;;;21.13;11.43;;;;;;;14.65;88.63;94772.69;5021123;28;20195;-76
2022/04/27 07:03:46;;;;;;;21.17;11.13;;;;;;;14.72;88.26;94775.13;5018301;28;20205;-76
2022/04/27 07:06:13;;;;;;;25.33;12.73;;;;;;;14.80;88.10;94779.19;5020254;28;20193;-76
2022/04/27 07:08:40;;;;;;;33.83;11.83;;;;;;;14.90;86.88;94768.84;5019400;28;20222;-77
2022/04/27 07:11:09;;;;;;;23.73;11.37;;;;;;;14.93;86.80;94765.72;5026088;28;20199;-77
2022/04/27 07:13:36;;;;;;;21.57;11.87;;;;;;;15.04;86.52;94768.25;5022104;28;20213;-78
2022/04/27 07:16:04;;;;;;;29.07;10.83;;;;;;;15.10;86.76;94769.91;5025663;28;20218;-76
2022/04/27 07:18:33;;;;;;;22.10;11.13;;;;;;;15.24;85.86;94778.19;5024093;28;20192;-77
2022/04/27 07:21:00;;;;;;;22.07;11.20;;;;;;;15.28;83.77;94774.84;5021553;28;20214;-77
2022/04/27 07:23:27;;;;;;;18.80;11.50;;;;;;;15.34;84.25;94776.50;5023258;28;20202;-77
2022/04/27 07:25:54;;;;;;;16.80;10.77;;;;;;;15.44;84.04;94781.03;5022563;28;20689;-81
2022/04/27 07:28:22;;;;;;;18.23;11.27;;;;;;;15.52;83.35;94787.72;5023518;28;20206;-76
2022/04/27 07:30:49;;;;;;;19.00;10.77;;;;;;;15.60;81.66;94788.09;5023519;28;20187;-79
2022/04/27 07:33:16;;;;;;;22.80;11.50;;;;;;;15.64;81.14;94781.28;5021675;28;20196;-79
2022/04/27 07:35:43;;;;;;;16.47;11.27;;;;;;;15.73;80.90;94774.59;5023207;28;20225;-79
2022/04/27 07:38:09;;;;;;;23.77;10.77;;;;;;;15.84;80.34;94783.38;5022915;28;20677;-78
2022/04/27 07:40:37;;;;;;;20.50;12.03;;;;;;;15.91;80.50;94778.69;5025293;28;20716;-80
2022/04/27 07:43:04;;;;;;;21.07;11.07;;;;;;;16.01;79.59;94778.00;5021085;28;20203;-76
2022/04/27 07:45:32;;;;;;;22.40;11.33;;;;;;;16.11;79.59;94781.50;5018323;28;20198;-78
2022/04/27 07:47:58;;;;;;;24.83;11.93;;;;;;;16.17;79.02;94787.59;5020213;28;20195;-76
2022/04/27 07:50:25;;;;;;;21.23;10.63;;;;;;;16.24;78.03;94783.75;5028220;28;20197;-80
2022/04/27 07:52:52;;;;;;;16.20;10.43;;;;;;;16.29;77.26;94772.50;5024010;28;20207;-77
2022/04/27 07:55:19;;;;;;;17.43;10.13;;;;;;;16.40;76.63;94782.81;5023579;28;20219;-77
2022/04/27 07:57:46;;;;;;;19.13;10.13;;;;;;;16.51;76.56;94775.03;5021351;28;20645;-78
2022/04/27 08:00:14;;;;;;;23.53;10.97;;;;;;;16.55;76.73;94776.91;5026537;28;20635;-77
2022/04/27 08:02:42;;;;;;;24.40;10.23;;;;;;;16.66;77.03;94777.78;5021444;28;20199;-78
2022/04/27 08:05:11;;;;;;;16.63;8.87;;;;;;;16.74;76.82;94766.81;5017830;28;20217;-78
2022/04/27 08:07:39;;;;;;;17.20;8.80;;;;;;;16.90;75.97;94777.16;5021757;28;20286;-78
2022/04/27 08:10:08;;;;;;;22.07;8.97;;;;;;;16.98;76.17;94770.63;5024472;28;20211;-77
2022/04/27 08:12:36;;;;;;;17.60;9.60;;;;;;;17.06;72.94;94777.22;5024179;28;20724;-77
2022/04/27 08:15:03;;;;;;;27.90;9.47;;;;;;;17.03;72.63;94774.06;5023431;28;20247;-78
2022/04/27 08:17:30;;;;;;;16.73;9.57;;;;;;;17.14;72.29;94763.63;5025973;28;20195;-78
2022/04/27 08:22:39;;;;;;;13.83;8.73;;;;;;;17.30;71.00;94766.06;5024998;28;20280;-77
2022/04/27 08:25:07;;;;;;;18.37;9.10;;;;;;;17.35;70.81;94762.66;5024397;28;20234;-78
2022/04/27 08:27:34;;;;;;;16.80;8.33;;;;;;;17.48;70.80;94765.63;5024873;28;20199;-77
2022/04/27 08:30:00;;;;;;;16.52;9.00;;;;;;;17.62;69.48;94759.91;5025199;28;20210;-80
2022/04/27 08:32:28;;;;;;;21.87;8.10;;;;;;;17.70;68.38;94769.91;5023429;28;20245;-77
2022/04/27 08:34:55;;;;;;;20.53;7.73;;;;;;;17.75;67.82;94754.16;5020322;28;20235;-77
2022/04/27 08:37:23;;;;;;;10.93;7.85;;;;;;;17.93;68.53;94762.34;5025147;28;20286;-78
2022/04/27 08:39:51;;;;;;;15.40;7.57;;;;;;;18.01;67.44;94761.03;5021918;28;20191;-77
2022/04/27 08:42:18;;;;;;;13.88;7.20;;;;;;;18.04;66.62;94755.25;5007964;28;20202;-85
2022/04/27 08:44:45;;;;;;;10.90;7.63;;;;;;;18.16;67.20;94758.44;5015838;28;20198;-80
2022/04/27 08:47:11;;;;;;;15.82;8.05;;;;;;;18.27;66.47;94753.97;5022557;28;20202;-76
2022/04/27 08:49:38;;;;;;;16.20;7.35;;;;;;;18.44;62.31;94767.66;5025192;28;20268;-75
2022/04/27 08:52:06;;;;;;;16.85;6.55;;;;;;;18.55;61.48;94741.09;5018902;28;20203;-74
2022/04/27 08:54:35;;;;;;;10.48;6.85;;;;;;;18.68;60.81;94748.44;5005745;28;20199;-77
2022/04/27 08:57:04;;;;;;;9.77;6.68;;;;;;;18.81;60.85;94748.97;5022528;28;20277;-76
2022/04/27 08:59:31;;;;;;;12.50;6.75;;;;;;;18.91;59.95;94748.94;5018868;28;20243;-76
2022/04/27 09:02:16;;;;;;;15.27;6.78;;;;;;;18.96;60.27;94744.44;5019291;28;20258;-76
2022/04/27 09:04:43;;;;;;;10.63;6.40;;;;;;;19.08;60.68;94744.13;5023444;28;20248;-76
2022/04/27 09:07:17;;;;;;;12.75;6.93;;;;;;;19.16;60.16;94733.84;5023500;28;20198;-74
2022/04/27 09:09:47;;;;;;;15.45;6.25;;;;;;;19.35;59.68;94741.16;5022575;28;20642;-75
2022/04/27 09:12:15;;;;;;;10.75;6.65;;;;;;;19.51;57.41;94734.81;5024567;28;20210;-76
2022/04/27 09:14:44;;;;;;;12.63;5.65;;;;;;;19.53;56.18;94732.69;5023272;28;20653;-76
2022/04/27 09:22:59;;;;;;;17.92;5.75;;;;;;;20.17;54.57;94733.31;5021473;28;20573;-76
2022/04/27 09:25:35;;;;;;;10.00;5.53;;;;;;;20.35;54.09;94726.63;5020226;28;20222;-75
2022/04/27 09:28:03;;;;;;;23.15;6.13;;;;;;;20.57;52.68;94724.34;5018846;28;20289;-75
2022/04/27 09:30:32;;;;;;;10.13;5.53;;;;;;;20.80;51.64;94720.16;5020883;28;20295;-74
2022/04/27 09:32:59;;;;;;;9.48;4.97;;;;;;;20.98;49.91;94718.66;5020969;28;20214;-76
2022/04/27 09:35:36;;;;;;;13.98;5.00;;;;;;;21.11;50.03;94710.84;5021490;28;20246;-76
2022/04/27 09:38:14;;;;;;;7.05;4.53;;;;;;;21.26;49.28;94710.69;5019530;28;20199;-77
2022/04/27 09:40:47;;;;;;;15.73;5.43;;;;;;;21.41;48.60;94704.41;5021276;28;20203;-76
2022/04/27 09:43:15;;;;;;;11.07;5.00;;;;;;;21.57;48.55;94713.72;5019972;28;20196;-76
2022/04/27 09:45:44;;;;;;;16.00;5.40;;;;;;;21.76;47.22;94706.56;5024678;28;20621;-80
2022/04/27 09:48:18;;;;;;;10.65;5.65;;;;;;;21.97;46.84;94701.81;5022105;28;20203;-77
2022/04/27 09:50:50;;;;;;;14.13;5.28;;;;;;;22.05;45.28;94701.94;5019172;28;20681;-78
2022/04/27 09:53:18;;;;;;;9.70;5.22;;;;;;;22.27;44.99;94692.63;5022548;28;20544;-81
2022/04/27 09:55:48;;;;;;;17.70;5.03;;;;;;;22.44;44.92;94700.81;5028968;28;20357;-82
2022/04/27 09:58:18;;;;;;;6.65;4.20;;;;;;;22.54;42.96;94690.81;5022813;28;20289;-81
2022/04/27 10:00:47;;;;;;;11.45;4.38;;;;;;;22.73;43.50;94688.16;5026520;28;20199;-81
2022/04/27 10:03:15;;;;;;;13.32;5.10;;;;;;;22.98;43.82;94695.63;5021184;28;20222;-81
2022/04/27 10:05:43;;;;;;;9.45;4.50;;;;;;;23.22;42.79;94692.78;5026145;28;20285;-83
2022/04/27 10:08:11;;;;;;;7.55;4.07;;;;;;;23.25;41.98;94684.22;5023866;28;20257;-82
2022/04/27 10:10:41;;;;;;;7.78;4.57;;;;;;;23.46;42.77;94690.72;5024642;28;20210;-83
2022/04/27 10:13:13;;;;;;;10.35;4.25;;;;;;;23.75;42.15;94682.41;5023796;28;20198;-82
2022/04/27 10:15:43;;;;;;;9.45;4.10;;;;;;;24.07;41.23;94689.41;5023826;28;20218;-81
2022/04/27 10:18:11;;;;;;;10.07;3.78;;;;;;;24.31;39.55;94689.91;5028235;28;20203;-82
2022/04/27 10:20:38;;;;;;;12.05;4.82;;;;;;;24.67;38.38;94685.28;5027540;28;20225;-82
2022/04/27 10:23:24;;;;;;;10.60;4.30;;;;;;;24.77;38.25;94682.34;5021490;28;20202;-81
2022/04/27 10:26:11;;;;;;;7.53;4.28;;;;;;;24.91;37.50;94676.16;5025615;28;20278;-82
2022/04/27 10:28:41;;;;;;;7.07;4.05;;;;;;;25.18;38.16;94671.44;5020040;28;20218;-81
2022/04/27 10:31:08;;;;;;;10.35;4.50;;;;;;;25.44;37.39;94676.03;5020757;28;20241;-81
2022/04/27 10:33:50;;;;;;;7.95;4.18;;;;;;;25.64;37.47;94668.28;5021503;28;20234;-79
2022/04/27 10:36:22;;;;;;;10.32;4.28;;;;;;;25.82;37.02;94669.84;5021100;28;20313;-77
2022/04/27 10:39:21;;;;;;;8.25;4.00;;;;;;;26.00;36.85;94665.31;5021077;28;20207;-80
2022/04/27 10:42:32;;;;;;;9.90;3.60;;;;;;;26.25;36.58;94661.09;5021661;28;20203;-79
2022/04/27 10:45:13;;;;;;;13.60;5.05;;;;;;;26.20;34.95;94653.25;5023663;28;20279;-80
2022/04/27 10:47:43;;;;;;;9.43;5.45;;;;;;;26.28;34.61;94649.78;5022863;28;21205;-78
2022/04/27 10:50:29;;;;;;;11.77;5.63;;;;;;;26.24;35.26;94641.63;5022666;28;20269;-78
2022/04/27 10:52:57;;;;;;;15.00;6.28;;;;;;;26.20;35.14;94634.59;5019807;28;20194;-78
2022/04/27 10:55:45;;;;;;;13.45;8.05;;;;;;;26.52;35.53;94637.50;5021573;28;20203;-79
2022/04/27 10:58:26;;;;;;;21.48;10.90;;;;;;;26.59;35.09;94634.34;5026786;28;20201;-79
2022/04/27 11:01:31;;;;;;;20.73;10.43;;;;;;;26.78;34.64;94629.41;5022094;28;20313;-79
2022/04/27 11:04:04;;;;;;;14.70;8.95;;;;;;;26.89;34.09;94629.88;5021303;28;20194;-79
2022/04/27 11:07:07;;;;;;;19.00;7.90;;;;;;;27.09;33.79;94621.16;5017403;28;20199;-78
2022/04/27 11:09:50;;;;;;;14.07;7.20;;;;;;;27.33;34.31;94623.22;5017156;28;20209;-79
2022/04/27 11:12:18;;;;;;;12.68;6.70;;;;;;;27.13;33.72;94618.63;5019733;28;20218;-77
2022/04/27 11:14:47;;;;;;;12.60;5.80;;;;;;;27.44;33.22;94619.09;5016705;28;20317;-76
2022/04/27 11:17:29;;;;;;;13.75;5.80;;;;;;;27.75;33.45;94616.81;5018633;28;20273;-76
2022/04/27 11:19:56;;;;;;;18.35;5.75;;;;;;;27.76;33.16;94614.94;5018799;28;20260;-77
2022/04/27 11:22:24;;;;;;;10.63;5.63;;;;;;;27.99;32.85;94614.25;5021333;28;20587;-76
2022/04/27 11:24:52;;;;;;;10.98;5.15;;;;;;;28.20;32.72;94610.81;5019937;28;20230;-76
2022/04/27 11:27:23;;;;;;;11.50;5.13;;;;;;;28.34;32.14;94616.63;5017861;28;20474;-76
2022/04/27 11:29:52;;;;;;;14.25;5.72;;;;;;;28.47;32.98;94605.63;5018623;28;20223;-76
2022/04/27 11:32:21;;;;;;;10.70;4.55;;;;;;;28.62;32.54;94593.50;5017153;28;20211;-77
2022/04/27 11:34:50;;;;;;;8.45;4.60;;;;;;;28.63;31.12;94601.22;5022097;28;20202;-76
2022/04/27 11:37:18;;;;;;;11.43;4.00;;;;;;;28.62;31.63;94596.19;5018538;28;20214;-78
2022/04/27 11:39:45;;;;;;;8.02;3.97;;;;;;;28.79;31.47;94592.53;5019020;28;20213;-76
2022/04/27 11:42:13;;;;;;;12.18;4.60;;;;;;;28.94;31.85;94592.66;5010563;28;20201;-75
2022/04/27 11:44:41;;;;;;;11.30;4.13;;;;;;;28.94;31.63;94594.56;5019419;28;20758;-76
2022/04/27 11:47:27;;;;;;;12.80;3.95;;;;;;;29.02;31.29;94583.75;5015453;28;20227;-76
2022/04/27 11:49:56;;;;;;;9.18;3.55;;;;;;;29.01;30.49;94582.16;5017946;28;20275;-76